sensor_id;sensor_type;location;lat;lon;timestamp;P1;durP1;ratioP1;P2;durP2;ratioP2
18228;SDS011;9239;50.932;3.142;2024-02-04T00:01:55;12.73;;;7.13;;
18228;SDS011;9239;50.932;3.142;2024-02-04T00:04:23;17.10;;;8.93;;
18228;SDS011;9239;50.932;3.142;2024-02-04T00:06:50;19.83;;;8.30;;
18228;SDS011;9239;50.932;3.142;2024-02-04T00:09:17;17.87;;;8.50;;
18228;SDS011;9239;50.932;3.142;2024-02-04T00:11:44;18.77;;;8.10;;
18228;SDS011;9239;50.932;3.142;2024-02-04T00:14:11;15.27;;;7.47;;
18228;SDS011;9239;50.932;3.142;2024-02-04T00:16:38;17.60;;;8.90;;
18228;SDS011;9239;50.932;3.142;2024-02-04T00:19:05;17.93;;;7.57;;
18228;SDS011;9239;50.932;3.142;2024-02-04T00:21:35;18.97;;;8.20;;
18228;SDS011;9239;50.932;3.142;2024-02-04T00:24:02;15.33;;;6.53;;
18228;SDS011;9239;50.932;3.142;2024-02-04T00:26:29;16.47;;;8.20;;
18228;SDS011;9239;50.932;3.142;2024-02-04T00:28:56;17.93;;;8.60;;
18228;SDS011;9239;50.932;3.142;2024-02-04T00:31:23;16.10;;;8.10;;
18228;SDS011;9239;50.932;3.142;2024-02-04T00:33:50;14.17;;;8.97;;
18228;SDS011;9239;50.932;3.142;2024-02-04T00:36:17;18.47;;;8.40;;
18228;SDS011;9239;50.932;3.142;2024-02-04T00:38:46;16.73;;;8.53;;
18228;SDS011;9239;50.932;3.142;2024-02-04T00:41:13;22.27;;;9.53;;
18228;SDS011;9239;50.932;3.142;2024-02-04T00:43:40;18.87;;;10.00;;
18228;SDS011;9239;50.932;3.142;2024-02-04T00:46:07;18.67;;;9.53;;
18228;SDS011;9239;50.932;3.142;2024-02-04T00:48:35;18.97;;;8.87;;
18228;SDS011;9239;50.932;3.142;2024-02-04T00:51:02;17.40;;;9.57;;
18228;SDS011;9239;50.932;3.142;2024-02-04T00:53:29;18.50;;;8.60;;
18228;SDS011;9239;50.932;3.142;2024-02-04T00:56:00;17.93;;;9.07;;
18228;SDS011;9239;50.932;3.142;2024-02-04T00:58:27;16.27;;;8.03;;
18228;SDS011;9239;50.932;3.142;2024-02-04T01:00:54;19.00;;;8.47;;
18228;SDS011;9239;50.932;3.142;2024-02-04T01:03:21;21.13;;;8.27;;
18228;SDS011;9239;50.932;3.142;2024-02-04T01:05:48;15.47;;;7.93;;
18228;SDS011;9239;50.932;3.142;2024-02-04T01:08:15;13.00;;;8.20;;
18228;SDS011;9239;50.932;3.142;2024-02-04T01:10:42;17.77;;;9.10;;
18228;SDS011;9239;50.932;3.142;2024-02-04T01:13:10;14.17;;;7.03;;
18228;SDS011;9239;50.932;3.142;2024-02-04T01:15:37;21.97;;;8.17;;
18228;SDS011;9239;50.932;3.142;2024-02-04T01:18:04;21.27;;;7.47;;
18228;SDS011;9239;50.932;3.142;2024-02-04T01:20:31;13.53;;;6.50;;
18228;SDS011;9239;50.932;3.142;2024-02-04T01:22:58;16.07;;;8.40;;
18228;SDS011;9239;50.932;3.142;2024-02-04T01:25:25;17.00;;;7.80;;
18228;SDS011;9239;50.932;3.142;2024-02-04T01:27:52;19.10;;;9.33;;
18228;SDS011;9239;50.932;3.142;2024-02-04T01:30:20;25.07;;;10.13;;
18228;SDS011;9239;50.932;3.142;2024-02-04T01:32:47;18.43;;;8.17;;
18228;SDS011;9239;50.932;3.142;2024-02-04T01:35:14;21.33;;;8.90;;
18228;SDS011;9239;50.932;3.142;2024-02-04T01:37:41;12.40;;;6.23;;
18228;SDS011;9239;50.932;3.142;2024-02-04T01:40:09;14.70;;;6.37;;
18228;SDS011;9239;50.932;3.142;2024-02-04T01:42:37;18.60;;;6.70;;
18228;SDS011;9239;50.932;3.142;2024-02-04T01:45:04;16.07;;;6.90;;
18228;SDS011;9239;50.932;3.142;2024-02-04T01:47:33;12.87;;;6.27;;
18228;SDS011;9239;50.932;3.142;2024-02-04T01:50:01;18.37;;;8.33;;
18228;SDS011;9239;50.932;3.142;2024-02-04T01:52:30;16.77;;;7.17;;
18228;SDS011;9239;50.932;3.142;2024-02-04T01:54:59;15.13;;;7.47;;
18228;SDS011;9239;50.932;3.142;2024-02-04T01:57:26;14.03;;;7.30;;
18228;SDS011;9239;50.932;3.142;2024-02-04T01:59:54;16.47;;;7.63;;
18228;SDS011;9239;50.932;3.142;2024-02-04T02:02:23;16.53;;;7.83;;
18228;SDS011;9239;50.932;3.142;2024-02-04T02:04:52;20.33;;;9.30;;
18228;SDS011;9239;50.932;3.142;2024-02-04T02:07:19;21.07;;;9.10;;
18228;SDS011;9239;50.932;3.142;2024-02-04T02:09:47;14.73;;;6.53;;
18228;SDS011;9239;50.932;3.142;2024-02-04T02:12:15;14.67;;;7.10;;
18228;SDS011;9239;50.932;3.142;2024-02-04T02:14:46;15.10;;;6.50;;
18228;SDS011;9239;50.932;3.142;2024-02-04T02:17:20;17.07;;;6.77;;
18228;SDS011;9239;50.932;3.142;2024-02-04T02:19:57;13.57;;;6.03;;
18228;SDS011;9239;50.932;3.142;2024-02-04T02:22:29;13.57;;;5.50;;
18228;SDS011;9239;50.932;3.142;2024-02-04T02:25:05;14.87;;;5.63;;
18228;SDS011;9239;50.932;3.142;2024-02-04T02:27:34;14.10;;;5.50;;
18228;SDS011;9239;50.932;3.142;2024-02-04T02:30:01;15.47;;;5.60;;
18228;SDS011;9239;50.932;3.142;2024-02-04T02:32:28;16.77;;;5.37;;
18228;SDS011;9239;50.932;3.142;2024-02-04T02:34:55;14.40;;;4.83;;
18228;SDS011;9239;50.932;3.142;2024-02-04T02:37:24;15.10;;;6.00;;
18228;SDS011;9239;50.932;3.142;2024-02-04T02:39:57;15.93;;;6.57;;
18228;SDS011;9239;50.932;3.142;2024-02-04T02:42:32;20.03;;;6.33;;
18228;SDS011;9239;50.932;3.142;2024-02-04T02:45:01;13.67;;;5.50;;
18228;SDS011;9239;50.932;3.142;2024-02-04T02:47:29;21.50;;;6.73;;
18228;SDS011;9239;50.932;3.142;2024-02-04T02:49:56;17.30;;;5.87;;
18228;SDS011;9239;50.932;3.142;2024-02-04T02:52:23;16.00;;;6.63;;
18228;SDS011;9239;50.932;3.142;2024-02-04T02:54:50;13.13;;;5.37;;
18228;SDS011;9239;50.932;3.142;2024-02-04T02:57:17;17.17;;;6.73;;
18228;SDS011;9239;50.932;3.142;2024-02-04T02:59:46;20.87;;;7.13;;
18228;SDS011;9239;50.932;3.142;2024-02-04T03:02:13;15.33;;;6.40;;
18228;SDS011;9239;50.932;3.142;2024-02-04T03:04:40;17.77;;;7.20;;
18228;SDS011;9239;50.932;3.142;2024-02-04T03:07:07;15.87;;;6.90;;
18228;SDS011;9239;50.932;3.142;2024-02-04T03:09:34;14.83;;;6.53;;
18228;SDS011;9239;50.932;3.142;2024-02-04T03:12:01;15.17;;;6.60;;
18228;SDS011;9239;50.932;3.142;2024-02-04T03:14:28;15.77;;;6.23;;
18228;SDS011;9239;50.932;3.142;2024-02-04T03:16:56;11.13;;;7.13;;
18228;SDS011;9239;50.932;3.142;2024-02-04T03:19:23;15.33;;;6.20;;
18228;SDS011;9239;50.932;3.142;2024-02-04T03:21:50;19.90;;;7.97;;
18228;SDS011;9239;50.932;3.142;2024-02-04T03:24:17;18.40;;;7.13;;
18228;SDS011;9239;50.932;3.142;2024-02-04T03:26:44;17.20;;;7.33;;
18228;SDS011;9239;50.932;3.142;2024-02-04T03:29:11;19.93;;;6.87;;
18228;SDS011;9239;50.932;3.142;2024-02-04T03:31:38;14.57;;;6.70;;
18228;SDS011;9239;50.932;3.142;2024-02-04T03:34:06;14.87;;;7.37;;
18228;SDS011;9239;50.932;3.142;2024-02-04T03:36:33;15.47;;;7.13;;
18228;SDS011;9239;50.932;3.142;2024-02-04T03:39:03;14.83;;;7.47;;
18228;SDS011;9239;50.932;3.142;2024-02-04T03:41:30;16.27;;;6.97;;
18228;SDS011;9239;50.932;3.142;2024-02-04T03:43:57;16.20;;;8.40;;
18228;SDS011;9239;50.932;3.142;2024-02-04T03:46:24;14.47;;;6.80;;
18228;SDS011;9239;50.932;3.142;2024-02-04T03:48:50;16.53;;;7.87;;
18228;SDS011;9239;50.932;3.142;2024-02-04T03:51:19;21.50;;;7.27;;
18228;SDS011;9239;50.932;3.142;2024-02-04T03:53:46;17.00;;;6.70;;
18228;SDS011;9239;50.932;3.142;2024-02-04T03:56:14;15.40;;;6.73;;
18228;SDS011;9239;50.932;3.142;2024-02-04T03:58:41;12.97;;;6.30;;
18228;SDS011;9239;50.932;3.142;2024-02-04T04:01:09;13.57;;;6.57;;
18228;SDS011;9239;50.932;3.142;2024-02-04T04:03:38;20.03;;;7.57;;
18228;SDS011;9239;50.932;3.142;2024-02-04T04:06:05;15.83;;;6.50;;
18228;SDS011;9239;50.932;3.142;2024-02-04T04:08:34;11.80;;;6.53;;
18228;SDS011;9239;50.932;3.142;2024-02-04T04:11:01;12.87;;;6.23;;
18228;SDS011;9239;50.932;3.142;2024-02-04T04:13:28;11.73;;;6.17;;
18228;SDS011;9239;50.932;3.142;2024-02-04T04:15:57;13.80;;;6.80;;
18228;SDS011;9239;50.932;3.142;2024-02-04T04:18:24;18.43;;;6.60;;
18228;SDS011;9239;50.932;3.142;2024-02-04T04:20:51;14.20;;;6.17;;
18228;SDS011;9239;50.932;3.142;2024-02-04T04:23:18;17.37;;;6.10;;
18228;SDS011;9239;50.932;3.142;2024-02-04T04:25:46;10.60;;;6.70;;
18228;SDS011;9239;50.932;3.142;2024-02-04T04:28:13;14.27;;;7.50;;
18228;SDS011;9239;50.932;3.142;2024-02-04T04:30:40;12.47;;;6.17;;
18228;SDS011;9239;50.932;3.142;2024-02-04T04:33:07;18.43;;;6.37;;
18228;SDS011;9239;50.932;3.142;2024-02-04T04:35:34;12.10;;;6.37;;
18228;SDS011;9239;50.932;3.142;2024-02-04T04:38:01;18.87;;;7.93;;
18228;SDS011;9239;50.932;3.142;2024-02-04T04:40:28;10.30;;;6.53;;
18228;SDS011;9239;50.932;3.142;2024-02-04T04:42:56;11.80;;;6.43;;
18228;SDS011;9239;50.932;3.142;2024-02-04T04:45:23;12.50;;;6.27;;
18228;SDS011;9239;50.932;3.142;2024-02-04T04:47:50;11.43;;;6.57;;
18228;SDS011;9239;50.932;3.142;2024-02-04T04:50:17;9.73;;;6.13;;
18228;SDS011;9239;50.932;3.142;2024-02-04T04:52:44;11.43;;;6.10;;
18228;SDS011;9239;50.932;3.142;2024-02-04T04:55:12;12.37;;;5.80;;
18228;SDS011;9239;50.932;3.142;2024-02-04T04:57:38;10.33;;;5.97;;
18228;SDS011;9239;50.932;3.142;2024-02-04T05:00:07;7.37;;;5.30;;
18228;SDS011;9239;50.932;3.142;2024-02-04T05:02:36;15.17;;;5.73;;
18228;SDS011;9239;50.932;3.142;2024-02-04T05:05:03;11.27;;;5.67;;
18228;SDS011;9239;50.932;3.142;2024-02-04T05:07:31;11.10;;;6.50;;
18228;SDS011;9239;50.932;3.142;2024-02-04T05:09:58;13.73;;;6.43;;
18228;SDS011;9239;50.932;3.142;2024-02-04T05:12:25;13.20;;;6.47;;
18228;SDS011;9239;50.932;3.142;2024-02-04T05:14:52;10.43;;;5.33;;
18228;SDS011;9239;50.932;3.142;2024-02-04T05:17:20;10.67;;;5.43;;
18228;SDS011;9239;50.932;3.142;2024-02-04T05:19:47;10.27;;;5.73;;
18228;SDS011;9239;50.932;3.142;2024-02-04T05:22:14;10.73;;;5.20;;
18228;SDS011;9239;50.932;3.142;2024-02-04T05:24:41;10.00;;;5.63;;
18228;SDS011;9239;50.932;3.142;2024-02-04T05:27:08;11.50;;;5.30;;
18228;SDS011;9239;50.932;3.142;2024-02-04T05:29:35;11.30;;;6.00;;
18228;SDS011;9239;50.932;3.142;2024-02-04T05:32:02;9.60;;;5.23;;
18228;SDS011;9239;50.932;3.142;2024-02-04T05:34:31;7.67;;;4.30;;
18228;SDS011;9239;50.932;3.142;2024-02-04T05:36:59;8.37;;;4.50;;
18228;SDS011;9239;50.932;3.142;2024-02-04T05:39:26;9.33;;;4.33;;
18228;SDS011;9239;50.932;3.142;2024-02-04T05:41:53;6.60;;;3.80;;
18228;SDS011;9239;50.932;3.142;2024-02-04T05:44:20;6.50;;;4.13;;
18228;SDS011;9239;50.932;3.142;2024-02-04T05:46:47;6.80;;;4.73;;
18228;SDS011;9239;50.932;3.142;2024-02-04T05:49:14;11.03;;;5.67;;
18228;SDS011;9239;50.932;3.142;2024-02-04T05:51:42;10.83;;;4.73;;
18228;SDS011;9239;50.932;3.142;2024-02-04T05:54:09;6.90;;;3.97;;
18228;SDS011;9239;50.932;3.142;2024-02-04T05:56:36;9.10;;;4.40;;
18228;SDS011;9239;50.932;3.142;2024-02-04T05:59:03;7.50;;;3.43;;
18228;SDS011;9239;50.932;3.142;2024-02-04T06:01:30;6.70;;;3.60;;
18228;SDS011;9239;50.932;3.142;2024-02-04T06:03:58;8.30;;;4.93;;
18228;SDS011;9239;50.932;3.142;2024-02-04T06:06:25;11.13;;;4.40;;
18228;SDS011;9239;50.932;3.142;2024-02-04T06:08:53;8.37;;;4.20;;
18228;SDS011;9239;50.932;3.142;2024-02-04T06:11:20;6.17;;;3.57;;
18228;SDS011;9239;50.932;3.142;2024-02-04T06:13:47;6.77;;;3.70;;
18228;SDS011;9239;50.932;3.142;2024-02-04T06:16:14;10.17;;;3.77;;
18228;SDS011;9239;50.932;3.142;2024-02-04T06:18:41;7.47;;;3.20;;
18228;SDS011;9239;50.932;3.142;2024-02-04T06:21:08;7.23;;;3.67;;
18228;SDS011;9239;50.932;3.142;2024-02-04T06:23:35;8.60;;;3.90;;
18228;SDS011;9239;50.932;3.142;2024-02-04T06:26:06;8.67;;;3.80;;
18228;SDS011;9239;50.932;3.142;2024-02-04T06:28:33;6.57;;;4.00;;
18228;SDS011;9239;50.932;3.142;2024-02-04T06:31:00;6.03;;;3.90;;
18228;SDS011;9239;50.932;3.142;2024-02-04T06:33:27;6.93;;;3.90;;
18228;SDS011;9239;50.932;3.142;2024-02-04T06:35:54;6.67;;;3.87;;
18228;SDS011;9239;50.932;3.142;2024-02-04T06:38:21;5.93;;;3.60;;
18228;SDS011;9239;50.932;3.142;2024-02-04T06:40:48;6.13;;;4.27;;
18228;SDS011;9239;50.932;3.142;2024-02-04T06:43:16;7.37;;;3.87;;
18228;SDS011;9239;50.932;3.142;2024-02-04T06:45:43;6.13;;;3.87;;
18228;SDS011;9239;50.932;3.142;2024-02-04T06:48:10;11.23;;;10.30;;
18228;SDS011;9239;50.932;3.142;2024-02-04T06:50:37;9.57;;;6.07;;
18228;SDS011;9239;50.932;3.142;2024-02-04T06:53:04;9.80;;;5.80;;
18228;SDS011;9239;50.932;3.142;2024-02-04T06:55:31;12.13;;;6.70;;
18228;SDS011;9239;50.932;3.142;2024-02-04T06:57:58;11.63;;;6.77;;
18228;SDS011;9239;50.932;3.142;2024-02-04T07:00:26;8.43;;;3.83;;
18228;SDS011;9239;50.932;3.142;2024-02-04T07:02:53;8.90;;;3.40;;
18228;SDS011;9239;50.932;3.142;2024-02-04T07:05:21;8.23;;;3.23;;
18228;SDS011;9239;50.932;3.142;2024-02-04T07:07:48;5.30;;;3.60;;
18228;SDS011;9239;50.932;3.142;2024-02-04T07:10:15;6.90;;;2.80;;
18228;SDS011;9239;50.932;3.142;2024-02-04T07:12:42;6.00;;;3.40;;
18228;SDS011;9239;50.932;3.142;2024-02-04T07:15:10;8.57;;;3.20;;
18228;SDS011;9239;50.932;3.142;2024-02-04T07:17:38;5.40;;;3.87;;
18228;SDS011;9239;50.932;3.142;2024-02-04T07:20:05;6.50;;;3.63;;
18228;SDS011;9239;50.932;3.142;2024-02-04T07:22:33;5.83;;;3.17;;
18228;SDS011;9239;50.932;3.142;2024-02-04T07:25:00;9.93;;;3.77;;
18228;SDS011;9239;50.932;3.142;2024-02-04T07:27:28;6.20;;;3.27;;
18228;SDS011;9239;50.932;3.142;2024-02-04T07:29:56;8.17;;;3.70;;
18228;SDS011;9239;50.932;3.142;2024-02-04T07:32:23;7.97;;;3.70;;
18228;SDS011;9239;50.932;3.142;2024-02-04T07:34:51;8.10;;;4.40;;
18228;SDS011;9239;50.932;3.142;2024-02-04T07:37:18;9.17;;;3.60;;
18228;SDS011;9239;50.932;3.142;2024-02-04T07:39:45;7.17;;;4.60;;
18228;SDS011;9239;50.932;3.142;2024-02-04T07:42:12;10.00;;;4.40;;
18228;SDS011;9239;50.932;3.142;2024-02-04T07:44:39;8.50;;;3.60;;
18228;SDS011;9239;50.932;3.142;2024-02-04T07:47:06;9.53;;;4.17;;
18228;SDS011;9239;50.932;3.142;2024-02-04T07:49:33;5.53;;;3.43;;
18228;SDS011;9239;50.932;3.142;2024-02-04T07:52:01;5.40;;;3.03;;
18228;SDS011;9239;50.932;3.142;2024-02-04T07:54:28;7.60;;;3.40;;
18228;SDS011;9239;50.932;3.142;2024-02-04T07:56:55;8.03;;;3.60;;
18228;SDS011;9239;50.932;3.142;2024-02-04T07:59:22;8.70;;;3.23;;
18228;SDS011;9239;50.932;3.142;2024-02-04T08:01:49;9.20;;;3.63;;
18228;SDS011;9239;50.932;3.142;2024-02-04T08:04:16;11.70;;;3.80;;
18228;SDS011;9239;50.932;3.142;2024-02-04T08:06:43;7.27;;;3.43;;
18228;SDS011;9239;50.932;3.142;2024-02-04T08:09:11;8.73;;;3.23;;
18228;SDS011;9239;50.932;3.142;2024-02-04T08:11:38;6.10;;;4.23;;
18228;SDS011;9239;50.932;3.142;2024-02-04T08:14:05;9.23;;;4.43;;
18228;SDS011;9239;50.932;3.142;2024-02-04T08:16:32;6.60;;;4.60;;
18228;SDS011;9239;50.932;3.142;2024-02-04T08:18:59;5.40;;;3.13;;
18228;SDS011;9239;50.932;3.142;2024-02-04T08:21:26;6.33;;;3.60;;
18228;SDS011;9239;50.932;3.142;2024-02-04T08:23:56;5.93;;;3.10;;
18228;SDS011;9239;50.932;3.142;2024-02-04T08:26:25;6.70;;;3.20;;
18228;SDS011;9239;50.932;3.142;2024-02-04T08:28:51;6.63;;;3.10;;
18228;SDS011;9239;50.932;3.142;2024-02-04T08:31:18;6.53;;;3.43;;
18228;SDS011;9239;50.932;3.142;2024-02-04T08:33:46;6.37;;;3.00;;
18228;SDS011;9239;50.932;3.142;2024-02-04T08:36:13;4.90;;;3.40;;
18228;SDS011;9239;50.932;3.142;2024-02-04T08:38:40;8.60;;;4.40;;
18228;SDS011;9239;50.932;3.142;2024-02-04T08:41:07;7.90;;;2.87;;
18228;SDS011;9239;50.932;3.142;2024-02-04T08:43:35;8.80;;;4.27;;
18228;SDS011;9239;50.932;3.142;2024-02-04T08:46:03;6.80;;;3.33;;
18228;SDS011;9239;50.932;3.142;2024-02-04T08:48:31;6.70;;;3.20;;
18228;SDS011;9239;50.932;3.142;2024-02-04T08:50:58;8.50;;;3.30;;
18228;SDS011;9239;50.932;3.142;2024-02-04T08:53:25;7.00;;;3.40;;
18228;SDS011;9239;50.932;3.142;2024-02-04T08:55:52;7.47;;;5.00;;
18228;SDS011;9239;50.932;3.142;2024-02-04T08:58:19;8.53;;;4.97;;
18228;SDS011;9239;50.932;3.142;2024-02-04T09:00:47;5.80;;;3.20;;
18228;SDS011;9239;50.932;3.142;2024-02-04T09:03:14;5.67;;;3.53;;
18228;SDS011;9239;50.932;3.142;2024-02-04T09:05:41;6.57;;;3.60;;
18228;SDS011;9239;50.932;3.142;2024-02-04T09:08:08;7.90;;;3.87;;
18228;SDS011;9239;50.932;3.142;2024-02-04T09:10:36;4.80;;;2.73;;
18228;SDS011;9239;50.932;3.142;2024-02-04T09:13:03;9.00;;;3.30;;
18228;SDS011;9239;50.932;3.142;2024-02-04T09:15:30;7.63;;;2.90;;
18228;SDS011;9239;50.932;3.142;2024-02-04T09:17:58;6.10;;;3.23;;
18228;SDS011;9239;50.932;3.142;2024-02-04T09:20:25;6.57;;;3.23;;
18228;SDS011;9239;50.932;3.142;2024-02-04T09:22:52;6.20;;;2.80;;
18228;SDS011;9239;50.932;3.142;2024-02-04T09:25:19;7.20;;;3.23;;
18228;SDS011;9239;50.932;3.142;2024-02-04T09:27:45;7.10;;;2.67;;
18228;SDS011;9239;50.932;3.142;2024-02-04T09:30:13;8.20;;;2.50;;
18228;SDS011;9239;50.932;3.142;2024-02-04T09:32:40;9.70;;;3.10;;
18228;SDS011;9239;50.932;3.142;2024-02-04T09:35:08;6.90;;;2.60;;
18228;SDS011;9239;50.932;3.142;2024-02-04T09:37:35;6.10;;;3.23;;
18228;SDS011;9239;50.932;3.142;2024-02-04T09:40:02;4.00;;;3.07;;
18228;SDS011;9239;50.932;3.142;2024-02-04T09:42:30;5.07;;;2.90;;
18228;SDS011;9239;50.932;3.142;2024-02-04T09:44:57;6.97;;;3.50;;
18228;SDS011;9239;50.932;3.142;2024-02-04T09:47:24;6.07;;;3.77;;
18228;SDS011;9239;50.932;3.142;2024-02-04T09:49:53;5.83;;;3.53;;
18228;SDS011;9239;50.932;3.142;2024-02-04T09:52:24;7.80;;;3.50;;
18228;SDS011;9239;50.932;3.142;2024-02-04T09:54:57;7.10;;;3.13;;
18228;SDS011;9239;50.932;3.142;2024-02-04T09:57:26;9.20;;;2.73;;
18228;SDS011;9239;50.932;3.142;2024-02-04T09:59:54;9.30;;;2.67;;
18228;SDS011;9239;50.932;3.142;2024-02-04T10:02:21;9.15;;;3.00;;
18228;SDS011;9239;50.932;3.142;2024-02-04T10:04:49;6.23;;;2.53;;
18228;SDS011;9239;50.932;3.142;2024-02-04T10:07:16;6.53;;;2.77;;
18228;SDS011;9239;50.932;3.142;2024-02-04T10:09:45;3.93;;;2.50;;
18228;SDS011;9239;50.932;3.142;2024-02-04T10:12:12;8.40;;;2.50;;
18228;SDS011;9239;50.932;3.142;2024-02-04T10:14:39;8.30;;;5.07;;
18228;SDS011;9239;50.932;3.142;2024-02-04T10:17:06;8.50;;;3.57;;
18228;SDS011;9239;50.932;3.142;2024-02-04T10:19:33;8.40;;;2.73;;
18228;SDS011;9239;50.932;3.142;2024-02-04T10:22:01;6.50;;;3.10;;
18228;SDS011;9239;50.932;3.142;2024-02-04T10:24:28;7.60;;;4.20;;
18228;SDS011;9239;50.932;3.142;2024-02-04T10:26:57;10.77;;;2.93;;
18228;SDS011;9239;50.932;3.142;2024-02-04T10:29:25;4.13;;;1.90;;
18228;SDS011;9239;50.932;3.142;2024-02-04T10:31:55;5.27;;;2.40;;
18228;SDS011;9239;50.932;3.142;2024-02-04T10:34:22;7.50;;;3.50;;
18228;SDS011;9239;50.932;3.142;2024-02-04T10:36:49;4.80;;;2.43;;
18228;SDS011;9239;50.932;3.142;2024-02-04T10:39:16;4.63;;;2.67;;
18228;SDS011;9239;50.932;3.142;2024-02-04T10:41:47;7.17;;;2.77;;
18228;SDS011;9239;50.932;3.142;2024-02-04T10:44:18;7.10;;;2.37;;
18228;SDS011;9239;50.932;3.142;2024-02-04T10:46:47;7.07;;;2.27;;
18228;SDS011;9239;50.932;3.142;2024-02-04T10:49:15;5.57;;;2.87;;
18228;SDS011;9239;50.932;3.142;2024-02-04T10:51:43;6.30;;;2.67;;
18228;SDS011;9239;50.932;3.142;2024-02-04T10:54:11;6.57;;;2.57;;
18228;SDS011;9239;50.932;3.142;2024-02-04T10:56:42;10.47;;;2.50;;
18228;SDS011;9239;50.932;3.142;2024-02-04T10:59:10;10.73;;;4.33;;
18228;SDS011;9239;50.932;3.142;2024-02-04T11:01:39;5.57;;;2.40;;
18228;SDS011;9239;50.932;3.142;2024-02-04T11:04:08;8.83;;;3.00;;
18228;SDS011;9239;50.932;3.142;2024-02-04T11:06:36;6.73;;;2.67;;
18228;SDS011;9239;50.932;3.142;2024-02-04T11:09:06;8.40;;;2.53;;
18228;SDS011;9239;50.932;3.142;2024-02-04T11:11:34;7.53;;;3.17;;
18228;SDS011;9239;50.932;3.142;2024-02-04T11:14:03;5.83;;;2.30;;
18228;SDS011;9239;50.932;3.142;2024-02-04T11:16:44;5.50;;;2.63;;
18228;SDS011;9239;50.932;3.142;2024-02-04T11:19:28;4.87;;;1.97;;
18228;SDS011;9239;50.932;3.142;2024-02-04T11:25:19;8.63;;;2.97;;
18228;SDS011;9239;50.932;3.142;2024-02-04T11:28:08;6.33;;;2.20;;
18228;SDS011;9239;50.932;3.142;2024-02-04T11:30:36;7.03;;;3.47;;
18228;SDS011;9239;50.932;3.142;2024-02-04T11:33:05;4.67;;;2.53;;
18228;SDS011;9239;50.932;3.142;2024-02-04T11:35:32;5.23;;;2.30;;
18228;SDS011;9239;50.932;3.142;2024-02-04T11:38:00;6.03;;;3.50;;
18228;SDS011;9239;50.932;3.142;2024-02-04T11:40:33;5.73;;;2.70;;
18228;SDS011;9239;50.932;3.142;2024-02-04T11:43:05;6.53;;;3.00;;
18228;SDS011;9239;50.932;3.142;2024-02-04T11:45:32;6.90;;;3.47;;
18228;SDS011;9239;50.932;3.142;2024-02-04T11:48:06;11.17;;;3.37;;
18228;SDS011;9239;50.932;3.142;2024-02-04T11:50:33;8.13;;;2.87;;
18228;SDS011;9239;50.932;3.142;2024-02-04T11:53:07;5.37;;;2.53;;
18228;SDS011;9239;50.932;3.142;2024-02-04T11:55:35;7.73;;;3.77;;
18228;SDS011;9239;50.932;3.142;2024-02-04T11:58:03;7.73;;;3.37;;
18228;SDS011;9239;50.932;3.142;2024-02-04T12:00:32;8.93;;;2.90;;
18228;SDS011;9239;50.932;3.142;2024-02-04T12:02:59;5.83;;;2.30;;
18228;SDS011;9239;50.932;3.142;2024-02-04T12:05:30;8.93;;;3.33;;
18228;SDS011;9239;50.932;3.142;2024-02-04T12:07:59;10.30;;;3.20;;
18228;SDS011;9239;50.932;3.142;2024-02-04T12:10:27;7.17;;;2.97;;
18228;SDS011;9239;50.932;3.142;2024-02-04T12:12:55;8.43;;;3.57;;
18228;SDS011;9239;50.932;3.142;2024-02-04T12:15:22;14.27;;;3.73;;
18228;SDS011;9239;50.932;3.142;2024-02-04T12:17:50;10.10;;;3.20;;
18228;SDS011;9239;50.932;3.142;2024-02-04T12:20:17;9.67;;;3.60;;
18228;SDS011;9239;50.932;3.142;2024-02-04T12:22:45;7.80;;;4.30;;
18228;SDS011;9239;50.932;3.142;2024-02-04T12:25:14;9.17;;;3.77;;
18228;SDS011;9239;50.932;3.142;2024-02-04T12:27:41;8.87;;;3.70;;
18228;SDS011;9239;50.932;3.142;2024-02-04T12:30:08;9.43;;;4.40;;
18228;SDS011;9239;50.932;3.142;2024-02-04T12:32:35;11.03;;;3.50;;
18228;SDS011;9239;50.932;3.142;2024-02-04T12:35:04;12.73;;;4.27;;
18228;SDS011;9239;50.932;3.142;2024-02-04T12:37:32;11.30;;;4.20;;
18228;SDS011;9239;50.932;3.142;2024-02-04T12:40:01;7.20;;;3.57;;
18228;SDS011;9239;50.932;3.142;2024-02-04T12:42:28;14.13;;;4.80;;
18228;SDS011;9239;50.932;3.142;2024-02-04T12:44:56;11.00;;;7.60;;
18228;SDS011;9239;50.932;3.142;2024-02-04T12:47:24;18.63;;;10.67;;
18228;SDS011;9239;50.932;3.142;2024-02-04T12:49:57;17.00;;;11.30;;
18228;SDS011;9239;50.932;3.142;2024-02-04T12:52:25;10.80;;;4.33;;
18228;SDS011;9239;50.932;3.142;2024-02-04T12:54:52;14.40;;;5.47;;
18228;SDS011;9239;50.932;3.142;2024-02-04T12:57:24;12.93;;;5.73;;
18228;SDS011;9239;50.932;3.142;2024-02-04T12:59:52;11.50;;;3.73;;
18228;SDS011;9239;50.932;3.142;2024-02-04T13:02:30;12.87;;;4.00;;
18228;SDS011;9239;50.932;3.142;2024-02-04T13:04:58;11.87;;;4.10;;
18228;SDS011;9239;50.932;3.142;2024-02-04T13:07:25;10.20;;;4.90;;
18228;SDS011;9239;50.932;3.142;2024-02-04T13:09:57;19.23;;;7.73;;
18228;SDS011;9239;50.932;3.142;2024-02-04T13:12:26;12.57;;;4.97;;
18228;SDS011;9239;50.932;3.142;2024-02-04T13:14:53;10.60;;;4.13;;
18228;SDS011;9239;50.932;3.142;2024-02-04T13:17:20;8.03;;;3.97;;
18228;SDS011;9239;50.932;3.142;2024-02-04T13:19:47;15.47;;;5.60;;
18228;SDS011;9239;50.932;3.142;2024-02-04T13:22:14;10.87;;;4.20;;
18228;SDS011;9239;50.932;3.142;2024-02-04T13:24:41;11.20;;;4.10;;
18228;SDS011;9239;50.932;3.142;2024-02-04T13:27:08;9.87;;;3.87;;
18228;SDS011;9239;50.932;3.142;2024-02-04T13:29:36;12.67;;;5.07;;
18228;SDS011;9239;50.932;3.142;2024-02-04T13:32:03;11.90;;;3.87;;
18228;SDS011;9239;50.932;3.142;2024-02-04T13:34:31;13.77;;;4.43;;
18228;SDS011;9239;50.932;3.142;2024-02-04T13:36:58;12.47;;;4.80;;
18228;SDS011;9239;50.932;3.142;2024-02-04T13:39:26;12.97;;;4.77;;
18228;SDS011;9239;50.932;3.142;2024-02-04T13:41:53;7.57;;;4.23;;
18228;SDS011;9239;50.932;3.142;2024-02-04T13:44:20;10.83;;;3.30;;
18228;SDS011;9239;50.932;3.142;2024-02-04T13:46:48;10.80;;;3.67;;
18228;SDS011;9239;50.932;3.142;2024-02-04T13:49:15;12.00;;;3.33;;
18228;SDS011;9239;50.932;3.142;2024-02-04T13:51:42;10.00;;;3.77;;
18228;SDS011;9239;50.932;3.142;2024-02-04T13:54:09;11.10;;;3.73;;
18228;SDS011;9239;50.932;3.142;2024-02-04T13:56:40;12.05;;;3.83;;
18228;SDS011;9239;50.932;3.142;2024-02-04T13:59:07;10.20;;;3.83;;
18228;SDS011;9239;50.932;3.142;2024-02-04T14:01:34;12.40;;;4.25;;
18228;SDS011;9239;50.932;3.142;2024-02-04T14:04:02;9.90;;;3.75;;
18228;SDS011;9239;50.932;3.142;2024-02-04T14:06:29;14.90;;;4.10;;
18228;SDS011;9239;50.932;3.142;2024-02-04T14:08:56;11.88;;;3.80;;
18228;SDS011;9239;50.932;3.142;2024-02-04T14:11:23;15.85;;;4.00;;
18228;SDS011;9239;50.932;3.142;2024-02-04T14:13:50;9.20;;;4.20;;
18228;SDS011;9239;50.932;3.142;2024-02-04T14:16:17;9.37;;;3.30;;
18228;SDS011;9239;50.932;3.142;2024-02-04T14:18:44;11.60;;;3.72;;
18228;SDS011;9239;50.932;3.142;2024-02-04T14:21:13;8.00;;;3.20;;
18228;SDS011;9239;50.932;3.142;2024-02-04T14:23:40;6.93;;;3.10;;
18228;SDS011;9239;50.932;3.142;2024-02-04T14:26:08;13.03;;;4.23;;
18228;SDS011;9239;50.932;3.142;2024-02-04T14:28:41;16.30;;;4.53;;
18228;SDS011;9239;50.932;3.142;2024-02-04T14:31:08;10.43;;;3.97;;
18228;SDS011;9239;50.932;3.142;2024-02-04T14:33:35;9.73;;;4.60;;
18228;SDS011;9239;50.932;3.142;2024-02-04T14:36:03;9.40;;;3.30;;
18228;SDS011;9239;50.932;3.142;2024-02-04T14:38:31;11.87;;;5.67;;
18228;SDS011;9239;50.932;3.142;2024-02-04T14:40:58;8.47;;;4.10;;
18228;SDS011;9239;50.932;3.142;2024-02-04T14:43:25;7.63;;;3.90;;
18228;SDS011;9239;50.932;3.142;2024-02-04T14:45:52;9.20;;;3.17;;
18228;SDS011;9239;50.932;3.142;2024-02-04T14:48:19;6.93;;;3.20;;
18228;SDS011;9239;50.932;3.142;2024-02-04T14:50:46;8.40;;;3.33;;
18228;SDS011;9239;50.932;3.142;2024-02-04T14:53:13;8.70;;;3.50;;
18228;SDS011;9239;50.932;3.142;2024-02-04T14:55:42;11.77;;;3.63;;
18228;SDS011;9239;50.932;3.142;2024-02-04T14:58:09;10.13;;;3.23;;
18228;SDS011;9239;50.932;3.142;2024-02-04T15:00:36;10.53;;;3.30;;